sensor_id;sensor_type;location;lat;lon;timestamp;P1;durP1;ratioP1;P2;durP2;ratioP2
20480;SDS011;10399;50.754;3.366;2023-12-14T00:01:57;76.35;;;31.45;;
20480;SDS011;10399;50.754;3.366;2023-12-14T00:04:25;67.25;;;28.92;;
20480;SDS011;10399;50.754;3.366;2023-12-14T00:06:52;66.07;;;29.27;;
20480;SDS011;10399;50.754;3.366;2023-12-14T00:09:19;70.05;;;29.30;;
20480;SDS011;10399;50.754;3.366;2023-12-14T00:11:46;71.07;;;27.48;;
20480;SDS011;10399;50.754;3.366;2023-12-14T00:14:13;66.35;;;27.38;;
20480;SDS011;10399;50.754;3.366;2023-12-14T00:16:40;70.45;;;28.67;;
20480;SDS011;10399;50.754;3.366;2023-12-14T00:19:07;64.55;;;27.00;;
20480;SDS011;10399;50.754;3.366;2023-12-14T00:21:34;69.28;;;28.40;;
20480;SDS011;10399;50.754;3.366;2023-12-14T00:24:01;68.50;;;28.95;;
20480;SDS011;10399;50.754;3.366;2023-12-14T00:26:28;78.78;;;27.70;;
20480;SDS011;10399;50.754;3.366;2023-12-14T00:28:55;64.82;;;26.77;;
20480;SDS011;10399;50.754;3.366;2023-12-14T00:31:27;69.68;;;27.35;;
20480;SDS011;10399;50.754;3.366;2023-12-14T00:33:54;74.80;;;28.25;;
20480;SDS011;10399;50.754;3.366;2023-12-14T00:36:21;64.10;;;25.23;;
20480;SDS011;10399;50.754;3.366;2023-12-14T00:38:48;62.17;;;26.00;;
20480;SDS011;10399;50.754;3.366;2023-12-14T00:41:15;71.22;;;27.60;;
20480;SDS011;10399;50.754;3.366;2023-12-14T00:43:42;66.90;;;28.08;;
20480;SDS011;10399;50.754;3.366;2023-12-14T00:46:09;73.97;;;27.73;;
20480;SDS011;10399;50.754;3.366;2023-12-14T00:48:37;68.97;;;26.52;;
20480;SDS011;10399;50.754;3.366;2023-12-14T00:51:05;69.63;;;26.92;;
20480;SDS011;10399;50.754;3.366;2023-12-14T00:53:32;66.25;;;26.08;;
20480;SDS011;10399;50.754;3.366;2023-12-14T00:55:59;66.75;;;26.83;;
20480;SDS011;10399;50.754;3.366;2023-12-14T00:58:26;69.85;;;27.73;;
20480;SDS011;10399;50.754;3.366;2023-12-14T01:00:53;67.30;;;27.92;;
20480;SDS011;10399;50.754;3.366;2023-12-14T01:03:21;72.00;;;26.00;;
20480;SDS011;10399;50.754;3.366;2023-12-14T01:05:48;62.88;;;26.15;;
20480;SDS011;10399;50.754;3.366;2023-12-14T01:08:15;67.13;;;25.67;;
20480;SDS011;10399;50.754;3.366;2023-12-14T01:10:42;66.97;;;26.13;;
20480;SDS011;10399;50.754;3.366;2023-12-14T01:13:10;64.20;;;26.00;;
20480;SDS011;10399;50.754;3.366;2023-12-14T01:15:37;58.65;;;22.52;;
20480;SDS011;10399;50.754;3.366;2023-12-14T01:18:04;63.50;;;23.98;;
20480;SDS011;10399;50.754;3.366;2023-12-14T01:20:31;58.08;;;24.02;;
20480;SDS011;10399;50.754;3.366;2023-12-14T01:22:58;53.13;;;22.60;;
20480;SDS011;10399;50.754;3.366;2023-12-14T01:25:26;50.88;;;21.08;;
20480;SDS011;10399;50.754;3.366;2023-12-14T01:27:53;48.20;;;19.30;;
20480;SDS011;10399;50.754;3.366;2023-12-14T01:30:20;50.92;;;20.17;;
20480;SDS011;10399;50.754;3.366;2023-12-14T01:32:47;42.42;;;18.42;;
20480;SDS011;10399;50.754;3.366;2023-12-14T01:35:14;41.83;;;17.10;;
20480;SDS011;10399;50.754;3.366;2023-12-14T01:37:41;35.63;;;15.27;;
20480;SDS011;10399;50.754;3.366;2023-12-14T01:40:08;42.15;;;16.42;;
20480;SDS011;10399;50.754;3.366;2023-12-14T01:42:35;39.25;;;16.08;;
20480;SDS011;10399;50.754;3.366;2023-12-14T01:45:04;33.92;;;15.20;;
20480;SDS011;10399;50.754;3.366;2023-12-14T01:47:31;32.78;;;14.35;;
20480;SDS011;10399;50.754;3.366;2023-12-14T01:49:58;35.90;;;14.80;;
20480;SDS011;10399;50.754;3.366;2023-12-14T01:52:25;29.35;;;14.45;;
20480;SDS011;10399;50.754;3.366;2023-12-14T01:54:52;24.70;;;12.98;;
20480;SDS011;10399;50.754;3.366;2023-12-14T01:57:21;24.52;;;13.10;;
20480;SDS011;10399;50.754;3.366;2023-12-14T01:59:48;31.83;;;12.77;;
20480;SDS011;10399;50.754;3.366;2023-12-14T02:02:15;25.38;;;12.68;;
20480;SDS011;10399;50.754;3.366;2023-12-14T02:04:42;31.15;;;12.70;;
20480;SDS011;10399;50.754;3.366;2023-12-14T02:07:09;26.40;;;12.82;;
20480;SDS011;10399;50.754;3.366;2023-12-14T02:09:37;30.08;;;13.05;;
20480;SDS011;10399;50.754;3.366;2023-12-14T02:12:04;27.50;;;13.25;;
20480;SDS011;10399;50.754;3.366;2023-12-14T02:14:31;23.30;;;11.38;;
20480;SDS011;10399;50.754;3.366;2023-12-14T02:16:58;22.15;;;12.52;;
20480;SDS011;10399;50.754;3.366;2023-12-14T02:19:25;28.35;;;12.88;;
20480;SDS011;10399;50.754;3.366;2023-12-14T02:21:52;26.20;;;13.10;;
20480;SDS011;10399;50.754;3.366;2023-12-14T02:24:19;21.88;;;12.75;;
20480;SDS011;10399;50.754;3.366;2023-12-14T02:26:46;25.23;;;12.20;;
20480;SDS011;10399;50.754;3.366;2023-12-14T02:29:28;20.23;;;11.15;;
20480;SDS011;10399;50.754;3.366;2023-12-14T02:31:56;17.40;;;9.40;;
20480;SDS011;10399;50.754;3.366;2023-12-14T02:34:23;16.13;;;7.82;;
20480;SDS011;10399;50.754;3.366;2023-12-14T02:36:52;12.65;;;5.85;;
20480;SDS011;10399;50.754;3.366;2023-12-14T02:39:19;9.82;;;6.72;;
20480;SDS011;10399;50.754;3.366;2023-12-14T02:41:46;13.30;;;7.05;;
20480;SDS011;10399;50.754;3.366;2023-12-14T02:44:13;12.73;;;6.55;;
20480;SDS011;10399;50.754;3.366;2023-12-14T02:46:40;16.38;;;6.80;;
20480;SDS011;10399;50.754;3.366;2023-12-14T02:49:08;14.07;;;6.43;;
20480;SDS011;10399;50.754;3.366;2023-12-14T02:51:35;12.57;;;7.05;;
20480;SDS011;10399;50.754;3.366;2023-12-14T02:54:02;15.38;;;6.45;;
20480;SDS011;10399;50.754;3.366;2023-12-14T02:56:29;13.70;;;7.13;;
20480;SDS011;10399;50.754;3.366;2023-12-14T02:58:56;12.93;;;6.45;;
20480;SDS011;10399;50.754;3.366;2023-12-14T03:01:23;11.25;;;6.28;;
20480;SDS011;10399;50.754;3.366;2023-12-14T03:03:50;15.70;;;6.65;;
20480;SDS011;10399;50.754;3.366;2023-12-14T03:06:17;14.50;;;6.50;;
20480;SDS011;10399;50.754;3.366;2023-12-14T03:08:44;10.18;;;6.13;;
20480;SDS011;10399;50.754;3.366;2023-12-14T03:11:20;16.05;;;6.30;;
20480;SDS011;10399;50.754;3.366;2023-12-14T03:13:48;14.38;;;7.03;;
20480;SDS011;10399;50.754;3.366;2023-12-14T03:16:16;12.30;;;6.18;;
20480;SDS011;10399;50.754;3.366;2023-12-14T03:18:43;16.30;;;6.45;;
20480;SDS011;10399;50.754;3.366;2023-12-14T03:21:10;12.88;;;6.32;;
20480;SDS011;10399;50.754;3.366;2023-12-14T03:23:37;12.40;;;6.10;;
20480;SDS011;10399;50.754;3.366;2023-12-14T03:26:04;12.52;;;6.97;;
20480;SDS011;10399;50.754;3.366;2023-12-14T03:28:31;15.63;;;6.50;;
20480;SDS011;10399;50.754;3.366;2023-12-14T03:30:58;8.98;;;5.55;;
20480;SDS011;10399;50.754;3.366;2023-12-14T03:33:25;11.23;;;6.43;;
20480;SDS011;10399;50.754;3.366;2023-12-14T03:35:52;12.45;;;6.32;;
20480;SDS011;10399;50.754;3.366;2023-12-14T03:38:19;11.02;;;6.18;;
20480;SDS011;10399;50.754;3.366;2023-12-14T03:40:45;12.30;;;6.47;;
20480;SDS011;10399;50.754;3.366;2023-12-14T03:43:13;10.73;;;5.60;;
20480;SDS011;10399;50.754;3.366;2023-12-14T03:45:39;13.85;;;6.53;;
20480;SDS011;10399;50.754;3.366;2023-12-14T03:48:07;14.27;;;6.22;;
20480;SDS011;10399;50.754;3.366;2023-12-14T03:50:34;11.63;;;5.97;;
20480;SDS011;10399;50.754;3.366;2023-12-14T03:53:01;15.35;;;7.15;;
20480;SDS011;10399;50.754;3.366;2023-12-14T03:55:28;13.40;;;6.13;;
20480;SDS011;10399;50.754;3.366;2023-12-14T03:57:55;16.95;;;6.78;;
20480;SDS011;10399;50.754;3.366;2023-12-14T04:00:22;13.60;;;5.97;;
20480;SDS011;10399;50.754;3.366;2023-12-14T04:02:49;14.05;;;5.90;;
20480;SDS011;10399;50.754;3.366;2023-12-14T04:05:16;9.85;;;5.63;;
20480;SDS011;10399;50.754;3.366;2023-12-14T04:07:43;20.77;;;6.53;;
20480;SDS011;10399;50.754;3.366;2023-12-14T04:10:11;20.08;;;6.75;;
20480;SDS011;10399;50.754;3.366;2023-12-14T04:12:39;11.05;;;5.93;;
20480;SDS011;10399;50.754;3.366;2023-12-14T04:15:07;16.55;;;6.28;;
20480;SDS011;10399;50.754;3.366;2023-12-14T04:17:35;14.15;;;6.35;;
20480;SDS011;10399;50.754;3.366;2023-12-14T04:20:03;18.00;;;5.55;;
20480;SDS011;10399;50.754;3.366;2023-12-14T04:22:32;11.57;;;5.80;;
20480;SDS011;10399;50.754;3.366;2023-12-14T04:25:00;14.27;;;7.20;;
20480;SDS011;10399;50.754;3.366;2023-12-14T04:27:27;12.95;;;6.07;;
20480;SDS011;10399;50.754;3.366;2023-12-14T04:29:56;15.15;;;6.88;;
20480;SDS011;10399;50.754;3.366;2023-12-14T04:32:23;16.50;;;6.57;;
20480;SDS011;10399;50.754;3.366;2023-12-14T04:34:50;12.75;;;5.65;;
20480;SDS011;10399;50.754;3.366;2023-12-14T04:37:17;17.45;;;6.15;;
20480;SDS011;10399;50.754;3.366;2023-12-14T04:39:45;15.10;;;5.80;;
20480;SDS011;10399;50.754;3.366;2023-12-14T04:42:12;13.82;;;6.00;;
20480;SDS011;10399;50.754;3.366;2023-12-14T04:44:39;14.38;;;5.90;;
20480;SDS011;10399;50.754;3.366;2023-12-14T04:47:06;10.82;;;5.25;;
20480;SDS011;10399;50.754;3.366;2023-12-14T04:49:37;10.80;;;5.72;;
20480;SDS011;10399;50.754;3.366;2023-12-14T04:52:04;11.77;;;5.50;;
20480;SDS011;10399;50.754;3.366;2023-12-14T04:54:31;19.45;;;6.25;;
20480;SDS011;10399;50.754;3.366;2023-12-14T04:56:59;14.32;;;5.65;;
20480;SDS011;10399;50.754;3.366;2023-12-14T04:59:26;12.10;;;5.55;;
20480;SDS011;10399;50.754;3.366;2023-12-14T05:01:53;12.93;;;5.47;;
20480;SDS011;10399;50.754;3.366;2023-12-14T05:04:20;15.60;;;5.65;;
20480;SDS011;10399;50.754;3.366;2023-12-14T05:06:47;19.13;;;5.53;;
20480;SDS011;10399;50.754;3.366;2023-12-14T05:09:14;13.15;;;5.25;;
20480;SDS011;10399;50.754;3.366;2023-12-14T05:11:41;14.48;;;5.88;;
20480;SDS011;10399;50.754;3.366;2023-12-14T05:14:09;14.75;;;5.50;;
20480;SDS011;10399;50.754;3.366;2023-12-14T05:16:36;12.27;;;5.90;;
20480;SDS011;10399;50.754;3.366;2023-12-14T05:19:06;17.35;;;5.90;;
20480;SDS011;10399;50.754;3.366;2023-12-14T05:21:45;16.30;;;5.95;;
20480;SDS011;10399;50.754;3.366;2023-12-14T05:24:12;12.57;;;5.78;;
20480;SDS011;10399;50.754;3.366;2023-12-14T05:26:39;14.23;;;5.93;;
20480;SDS011;10399;50.754;3.366;2023-12-14T05:29:06;14.23;;;5.88;;
20480;SDS011;10399;50.754;3.366;2023-12-14T05:31:33;14.38;;;5.88;;
20480;SDS011;10399;50.754;3.366;2023-12-14T05:34:00;17.55;;;5.65;;
20480;SDS011;10399;50.754;3.366;2023-12-14T05:36:27;18.75;;;6.28;;
20480;SDS011;10399;50.754;3.366;2023-12-14T05:38:54;19.23;;;6.38;;
20480;SDS011;10399;50.754;3.366;2023-12-14T05:41:21;12.60;;;5.55;;
20480;SDS011;10399;50.754;3.366;2023-12-14T05:43:48;11.95;;;6.38;;
20480;SDS011;10399;50.754;3.366;2023-12-14T05:46:24;17.83;;;6.80;;
20480;SDS011;10399;50.754;3.366;2023-12-14T05:48:51;21.48;;;6.10;;
20480;SDS011;10399;50.754;3.366;2023-12-14T05:51:30;13.10;;;5.97;;
20480;SDS011;10399;50.754;3.366;2023-12-14T05:53:58;12.48;;;6.10;;
20480;SDS011;10399;50.754;3.366;2023-12-14T05:56:26;12.10;;;5.65;;
20480;SDS011;10399;50.754;3.366;2023-12-14T05:58:53;14.35;;;6.45;;
20480;SDS011;10399;50.754;3.366;2023-12-14T06:01:20;21.08;;;7.10;;
20480;SDS011;10399;50.754;3.366;2023-12-14T06:03:47;25.70;;;7.00;;
20480;SDS011;10399;50.754;3.366;2023-12-14T06:06:14;13.13;;;6.50;;
20480;SDS011;10399;50.754;3.366;2023-12-14T06:08:42;16.10;;;6.88;;
20480;SDS011;10399;50.754;3.366;2023-12-14T06:11:09;13.40;;;6.25;;
20480;SDS011;10399;50.754;3.366;2023-12-14T06:13:36;19.58;;;6.55;;
20480;SDS011;10399;50.754;3.366;2023-12-14T06:16:04;13.65;;;6.25;;
20480;SDS011;10399;50.754;3.366;2023-12-14T06:18:31;14.80;;;6.57;;
20480;SDS011;10399;50.754;3.366;2023-12-14T06:20:58;12.43;;;6.05;;
20480;SDS011;10399;50.754;3.366;2023-12-14T06:23:25;17.30;;;6.40;;
20480;SDS011;10399;50.754;3.366;2023-12-14T06:25:53;16.13;;;6.30;;
20480;SDS011;10399;50.754;3.366;2023-12-14T06:28:20;18.60;;;6.13;;
20480;SDS011;10399;50.754;3.366;2023-12-14T06:30:47;15.60;;;6.15;;
20480;SDS011;10399;50.754;3.366;2023-12-14T06:33:14;17.77;;;6.30;;
20480;SDS011;10399;50.754;3.366;2023-12-14T06:35:41;13.32;;;6.00;;
20480;SDS011;10399;50.754;3.366;2023-12-14T06:38:09;17.05;;;6.10;;
20480;SDS011;10399;50.754;3.366;2023-12-14T06:40:36;11.70;;;5.93;;
20480;SDS011;10399;50.754;3.366;2023-12-14T06:43:04;15.65;;;6.30;;
20480;SDS011;10399;50.754;3.366;2023-12-14T06:45:31;15.40;;;5.85;;
20480;SDS011;10399;50.754;3.366;2023-12-14T06:47:58;19.58;;;6.22;;
20480;SDS011;10399;50.754;3.366;2023-12-14T06:50:26;10.18;;;6.15;;
20480;SDS011;10399;50.754;3.366;2023-12-14T06:52:52;18.02;;;6.03;;
20480;SDS011;10399;50.754;3.366;2023-12-14T06:55:20;13.52;;;6.55;;
20480;SDS011;10399;50.754;3.366;2023-12-14T06:57:47;14.15;;;6.18;;
20480;SDS011;10399;50.754;3.366;2023-12-14T07:00:14;13.55;;;6.22;;
20480;SDS011;10399;50.754;3.366;2023-12-14T07:02:41;13.32;;;5.68;;
20480;SDS011;10399;50.754;3.366;2023-12-14T07:05:09;21.00;;;6.30;;
20480;SDS011;10399;50.754;3.366;2023-12-14T07:07:36;20.98;;;6.45;;
20480;SDS011;10399;50.754;3.366;2023-12-14T07:10:03;16.33;;;5.50;;
20480;SDS011;10399;50.754;3.366;2023-12-14T07:12:30;15.93;;;5.47;;
20480;SDS011;10399;50.754;3.366;2023-12-14T07:14:58;13.57;;;5.15;;
20480;SDS011;10399;50.754;3.366;2023-12-14T07:17:25;19.58;;;6.00;;
20480;SDS011;10399;50.754;3.366;2023-12-14T07:19:52;10.40;;;5.97;;
20480;SDS011;10399;50.754;3.366;2023-12-14T07:22:22;14.50;;;5.63;;
20480;SDS011;10399;50.754;3.366;2023-12-14T07:24:49;11.30;;;5.82;;
20480;SDS011;10399;50.754;3.366;2023-12-14T07:27:24;14.15;;;6.05;;
20480;SDS011;10399;50.754;3.366;2023-12-14T07:29:51;12.15;;;6.05;;
20480;SDS011;10399;50.754;3.366;2023-12-14T07:32:19;21.83;;;6.68;;
20480;SDS011;10399;50.754;3.366;2023-12-14T07:34:46;15.68;;;7.00;;
20480;SDS011;10399;50.754;3.366;2023-12-14T07:37:13;18.75;;;6.95;;
20480;SDS011;10399;50.754;3.366;2023-12-14T07:39:40;13.90;;;7.07;;
20480;SDS011;10399;50.754;3.366;2023-12-14T07:42:07;15.27;;;7.40;;
20480;SDS011;10399;50.754;3.366;2023-12-14T07:44:34;17.02;;;7.53;;
20480;SDS011;10399;50.754;3.366;2023-12-14T07:47:02;19.45;;;6.93;;
20480;SDS011;10399;50.754;3.366;2023-12-14T07:49:29;17.98;;;7.00;;
20480;SDS011;10399;50.754;3.366;2023-12-14T07:51:56;16.10;;;6.65;;
20480;SDS011;10399;50.754;3.366;2023-12-14T07:54:23;16.15;;;6.38;;
20480;SDS011;10399;50.754;3.366;2023-12-14T07:56:53;18.58;;;7.57;;
20480;SDS011;10399;50.754;3.366;2023-12-14T07:59:20;16.67;;;7.28;;
20480;SDS011;10399;50.754;3.366;2023-12-14T08:01:47;24.67;;;7.82;;
20480;SDS011;10399;50.754;3.366;2023-12-14T08:04:14;19.75;;;7.10;;
20480;SDS011;10399;50.754;3.366;2023-12-14T08:06:41;21.35;;;7.82;;
20480;SDS011;10399;50.754;3.366;2023-12-14T08:09:09;21.38;;;7.68;;
20480;SDS011;10399;50.754;3.366;2023-12-14T08:11:36;16.85;;;6.88;;
20480;SDS011;10399;50.754;3.366;2023-12-14T08:14:03;21.20;;;7.97;;
20480;SDS011;10399;50.754;3.366;2023-12-14T08:16:30;19.98;;;8.52;;
20480;SDS011;10399;50.754;3.366;2023-12-14T08:18:57;19.52;;;7.90;;
20480;SDS011;10399;50.754;3.366;2023-12-14T08:21:24;22.98;;;8.25;;
20480;SDS011;10399;50.754;3.366;2023-12-14T08:23:51;13.38;;;7.53;;
20480;SDS011;10399;50.754;3.366;2023-12-14T08:26:18;25.67;;;7.90;;
20480;SDS011;10399;50.754;3.366;2023-12-14T08:28:45;14.40;;;7.80;;
20480;SDS011;10399;50.754;3.366;2023-12-14T08:31:12;22.08;;;8.30;;
20480;SDS011;10399;50.754;3.366;2023-12-14T08:33:43;13.90;;;7.32;;
20480;SDS011;10399;50.754;3.366;2023-12-14T08:36:16;16.27;;;7.25;;
20480;SDS011;10399;50.754;3.366;2023-12-14T08:38:43;19.20;;;8.48;;
20480;SDS011;10399;50.754;3.366;2023-12-14T08:41:14;19.23;;;8.15;;
20480;SDS011;10399;50.754;3.366;2023-12-14T08:43:42;14.45;;;7.72;;
20480;SDS011;10399;50.754;3.366;2023-12-14T08:46:09;18.58;;;8.05;;
20480;SDS011;10399;50.754;3.366;2023-12-14T08:48:36;29.42;;;8.43;;
20480;SDS011;10399;50.754;3.366;2023-12-14T08:51:04;21.13;;;8.15;;
20480;SDS011;10399;50.754;3.366;2023-12-14T08:53:31;17.50;;;8.05;;
20480;SDS011;10399;50.754;3.366;2023-12-14T08:55:58;13.02;;;7.82;;
20480;SDS011;10399;50.754;3.366;2023-12-14T08:58:26;16.95;;;8.38;;
20480;SDS011;10399;50.754;3.366;2023-12-14T09:00:53;25.20;;;8.32;;
20480;SDS011;10399;50.754;3.366;2023-12-14T09:03:20;19.88;;;8.65;;
20480;SDS011;10399;50.754;3.366;2023-12-14T09:05:48;17.02;;;8.13;;
20480;SDS011;10399;50.754;3.366;2023-12-14T09:08:15;18.55;;;9.32;;
20480;SDS011;10399;50.754;3.366;2023-12-14T09:10:42;20.25;;;8.73;;
20480;SDS011;10399;50.754;3.366;2023-12-14T09:13:09;16.05;;;8.90;;
20480;SDS011;10399;50.754;3.366;2023-12-14T09:15:36;24.27;;;9.75;;
20480;SDS011;10399;50.754;3.366;2023-12-14T09:18:03;19.08;;;9.60;;
20480;SDS011;10399;50.754;3.366;2023-12-14T09:20:32;26.25;;;9.45;;
20480;SDS011;10399;50.754;3.366;2023-12-14T09:23:01;21.75;;;9.27;;
20480;SDS011;10399;50.754;3.366;2023-12-14T09:25:28;22.92;;;9.35;;
20480;SDS011;10399;50.754;3.366;2023-12-14T09:27:55;19.48;;;9.20;;
20480;SDS011;10399;50.754;3.366;2023-12-14T09:30:22;19.77;;;9.35;;
20480;SDS011;10399;50.754;3.366;2023-12-14T09:32:49;24.45;;;10.07;;
20480;SDS011;10399;50.754;3.366;2023-12-14T09:35:16;22.42;;;9.27;;
20480;SDS011;10399;50.754;3.366;2023-12-14T09:37:44;19.98;;;9.52;;
20480;SDS011;10399;50.754;3.366;2023-12-14T09:40:11;19.63;;;8.40;;
20480;SDS011;10399;50.754;3.366;2023-12-14T09:42:38;19.05;;;8.45;;
20480;SDS011;10399;50.754;3.366;2023-12-14T09:45:08;18.63;;;7.78;;
20480;SDS011;10399;50.754;3.366;2023-12-14T09:47:36;18.08;;;7.70;;
20480;SDS011;10399;50.754;3.366;2023-12-14T09:50:05;17.77;;;7.22;;
20480;SDS011;10399;50.754;3.366;2023-12-14T09:52:33;13.57;;;7.55;;
20480;SDS011;10399;50.754;3.366;2023-12-14T09:55:00;20.33;;;7.97;;
20480;SDS011;10399;50.754;3.366;2023-12-14T09:57:30;16.65;;;7.95;;
20480;SDS011;10399;50.754;3.366;2023-12-14T09:59:57;18.17;;;8.27;;
20480;SDS011;10399;50.754;3.366;2023-12-14T10:02:25;18.30;;;8.13;;
20480;SDS011;10399;50.754;3.366;2023-12-14T10:04:56;18.05;;;9.15;;
20480;SDS011;10399;50.754;3.366;2023-12-14T10:07:24;20.58;;;9.02;;
20480;SDS011;10399;50.754;3.366;2023-12-14T10:09:51;17.83;;;8.52;;
20480;SDS011;10399;50.754;3.366;2023-12-14T10:12:22;15.93;;;8.85;;
20480;SDS011;10399;50.754;3.366;2023-12-14T10:14:59;16.60;;;9.02;;
20480;SDS011;10399;50.754;3.366;2023-12-14T10:17:28;17.00;;;9.35;;
20480;SDS011;10399;50.754;3.366;2023-12-14T10:19:59;18.13;;;9.20;;
20480;SDS011;10399;50.754;3.366;2023-12-14T10:22:31;18.55;;;9.52;;
20480;SDS011;10399;50.754;3.366;2023-12-14T10:24:59;20.83;;;10.23;;
20480;SDS011;10399;50.754;3.366;2023-12-14T10:27:27;25.55;;;10.32;;
20480;SDS011;10399;50.754;3.366;2023-12-14T10:29:55;19.23;;;9.30;;
20480;SDS011;10399;50.754;3.366;2023-12-14T10:32:23;18.08;;;9.48;;
20480;SDS011;10399;50.754;3.366;2023-12-14T10:34:50;22.38;;;9.85;;
20480;SDS011;10399;50.754;3.366;2023-12-14T10:37:17;16.25;;;9.65;;
20480;SDS011;10399;50.754;3.366;2023-12-14T10:39:46;18.70;;;9.80;;
20480;SDS011;10399;50.754;3.366;2023-12-14T10:42:15;22.77;;;9.80;;
20480;SDS011;10399;50.754;3.366;2023-12-14T10:44:48;21.83;;;9.90;;
20480;SDS011;10399;50.754;3.366;2023-12-14T10:47:45;26.75;;;10.15;;
20480;SDS011;10399;50.754;3.366;2023-12-14T10:50:17;18.17;;;9.57;;
20480;SDS011;10399;50.754;3.366;2023-12-14T10:52:45;23.17;;;10.40;;
20480;SDS011;10399;50.754;3.366;2023-12-14T10:55:59;19.00;;;10.50;;
20480;SDS011;10399;50.754;3.366;2023-12-14T10:58:07;21.10;;;9.77;;
20480;SDS011;10399;50.754;3.366;2023-12-14T11:00:36;23.08;;;8.63;;
20480;SDS011;10399;50.754;3.366;2023-12-14T11:03:04;18.30;;;7.70;;
20480;SDS011;10399;50.754;3.366;2023-12-14T11:05:32;15.50;;;6.75;;
20480;SDS011;10399;50.754;3.366;2023-12-14T11:08:04;13.15;;;5.50;;
20480;SDS011;10399;50.754;3.366;2023-12-14T11:10:39;21.88;;;5.00;;
20480;SDS011;10399;50.754;3.366;2023-12-14T11:13:19;11.15;;;3.78;;
20480;SDS011;10399;50.754;3.366;2023-12-14T11:15:48;14.77;;;3.53;;
20480;SDS011;10399;50.754;3.366;2023-12-14T11:20:53;7.63;;;2.65;;
20480;SDS011;10399;50.754;3.366;2023-12-14T11:25:52;12.00;;;2.35;;
20480;SDS011;10399;50.754;3.366;2023-12-14T11:28:24;8.35;;;2.50;;
20480;SDS011;10399;50.754;3.366;2023-12-14T11:30:56;9.73;;;2.38;;
20480;SDS011;10399;50.754;3.366;2023-12-14T11:33:23;8.60;;;2.40;;
20480;SDS011;10399;50.754;3.366;2023-12-14T11:35:51;9.77;;;3.03;;
20480;SDS011;10399;50.754;3.366;2023-12-14T11:38:19;11.57;;;3.10;;
20480;SDS011;10399;50.754;3.366;2023-12-14T11:40:48;7.95;;;2.97;;
20480;SDS011;10399;50.754;3.366;2023-12-14T11:43:16;10.20;;;2.90;;
20480;SDS011;10399;50.754;3.366;2023-12-14T11:45:47;10.38;;;3.05;;
20480;SDS011;10399;50.754;3.366;2023-12-14T11:48:15;9.90;;;3.50;;
20480;SDS011;10399;50.754;3.366;2023-12-14T11:50:42;8.10;;;2.85;;
20480;SDS011;10399;50.754;3.366;2023-12-14T11:53:10;8.90;;;3.03;;
20480;SDS011;10399;50.754;3.366;2023-12-14T11:55:39;7.82;;;2.92;;
20480;SDS011;10399;50.754;3.366;2023-12-14T11:58:07;13.63;;;3.47;;
20480;SDS011;10399;50.754;3.366;2023-12-14T12:00:35;8.00;;;3.15;;
20480;SDS011;10399;50.754;3.366;2023-12-14T12:03:17;8.38;;;3.35;;
20480;SDS011;10399;50.754;3.366;2023-12-14T12:05:50;9.77;;;3.38;;
20480;SDS011;10399;50.754;3.366;2023-12-14T12:08:19;6.88;;;3.13;;
20480;SDS011;10399;50.754;3.366;2023-12-14T12:10:47;9.48;;;3.67;;
20480;SDS011;10399;50.754;3.366;2023-12-14T12:13:16;11.00;;;2.90;;
20480;SDS011;10399;50.754;3.366;2023-12-14T12:15:45;12.30;;;2.97;;
20480;SDS011;10399;50.754;3.366;2023-12-14T12:18:14;10.63;;;2.65;;
20480;SDS011;10399;50.754;3.366;2023-12-14T12:20:43;13.07;;;3.20;;
20480;SDS011;10399;50.754;3.366;2023-12-14T12:23:10;6.13;;;2.95;;
20480;SDS011;10399;50.754;3.366;2023-12-14T12:25:38;7.55;;;2.63;;
20480;SDS011;10399;50.754;3.366;2023-12-14T12:28:05;9.10;;;2.88;;
20480;SDS011;10399;50.754;3.366;2023-12-14T12:30:32;10.02;;;2.80;;
20480;SDS011;10399;50.754;3.366;2023-12-14T12:33:03;7.25;;;2.67;;
20480;SDS011;10399;50.754;3.366;2023-12-14T12:35:30;8.55;;;2.60;;
20480;SDS011;10399;50.754;3.366;2023-12-14T12:37:59;9.48;;;2.80;;
20480;SDS011;10399;50.754;3.366;2023-12-14T12:40:27;11.05;;;3.05;;
20480;SDS011;10399;50.754;3.366;2023-12-14T12:42:54;8.48;;;2.60;;
20480;SDS011;10399;50.754;3.366;2023-12-14T12:45:20;9.90;;;2.63;;
20480;SDS011;10399;50.754;3.366;2023-12-14T12:47:49;14.65;;;3.38;;
20480;SDS011;10399;50.754;3.366;2023-12-14T12:50:16;10.52;;;3.10;;
20480;SDS011;10399;50.754;3.366;2023-12-14T12:52:44;12.85;;;3.22;;
20480;SDS011;10399;50.754;3.366;2023-12-14T12:55:15;15.85;;;3.00;;
20480;SDS011;10399;50.754;3.366;2023-12-14T12:57:42;8.88;;;3.08;;
20480;SDS011;10399;50.754;3.366;2023-12-14T13:00:09;8.23;;;2.45;;
20480;SDS011;10399;50.754;3.366;2023-12-14T13:02:40;10.07;;;2.95;;
20480;SDS011;10399;50.754;3.366;2023-12-14T13:05:08;11.43;;;2.58;;
20480;SDS011;10399;50.754;3.366;2023-12-14T13:07:43;9.98;;;2.40;;
20480;SDS011;10399;50.754;3.366;2023-12-14T13:10:12;7.10;;;1.77;;
20480;SDS011;10399;50.754;3.366;2023-12-14T13:12:56;7.60;;;2.10;;
20480;SDS011;10399;50.754;3.366;2023-12-14T13:15:23;13.90;;;2.40;;
20480;SDS011;10399;50.754;3.366;2023-12-14T13:17:52;5.30;;;2.28;;
20480;SDS011;10399;50.754;3.366;2023-12-14T13:20:20;7.72;;;2.70;;
20480;SDS011;10399;50.754;3.366;2023-12-14T13:22:47;14.60;;;2.63;;
20480;SDS011;10399;50.754;3.366;2023-12-14T13:25:15;6.65;;;2.10;;
20480;SDS011;10399;50.754;3.366;2023-12-14T13:27:42;10.18;;;2.30;;
20480;SDS011;10399;50.754;3.366;2023-12-14T13:30:10;8.55;;;2.25;;
20480;SDS011;10399;50.754;3.366;2023-12-14T13:32:38;12.50;;;2.58;;
20480;SDS011;10399;50.754;3.366;2023-12-14T13:35:05;7.45;;;2.55;;
20480;SDS011;10399;50.754;3.366;2023-12-14T13:37:35;9.77;;;2.50;;
20480;SDS011;10399;50.754;3.366;2023-12-14T13:40:02;11.43;;;2.60;;
20480;SDS011;10399;50.754;3.366;2023-12-14T13:42:30;9.57;;;2.40;;
20480;SDS011;10399;50.754;3.366;2023-12-14T13:44:57;8.15;;;2.50;;
20480;SDS011;10399;50.754;3.366;2023-12-14T13:47:24;11.65;;;2.38;;
20480;SDS011;10399;50.754;3.366;2023-12-14T13:49:51;10.65;;;2.47;;
20480;SDS011;10399;50.754;3.366;2023-12-14T13:52:19;9.68;;;2.30;;
20480;SDS011;10399;50.754;3.366;2023-12-14T13:54:46;9.93;;;2.72;;
20480;SDS011;10399;50.754;3.366;2023-12-14T13:57:13;8.90;;;2.72;;
20480;SDS011;10399;50.754;3.366;2023-12-14T13:59:40;13.70;;;3.00;;
20480;SDS011;10399;50.754;3.366;2023-12-14T14:02:07;5.30;;;2.28;;
20480;SDS011;10399;50.754;3.366;2023-12-14T14:04:34;12.13;;;3.15;;
20480;SDS011;10399;50.754;3.366;2023-12-14T14:07:04;14.50;;;2.95;;
20480;SDS011;10399;50.754;3.366;2023-12-14T14:09:32;8.32;;;3.08;;
20480;SDS011;10399;50.754;3.366;2023-12-14T14:12:02;13.43;;;2.50;;
20480;SDS011;10399;50.754;3.366;2023-12-14T14:14:30;11.80;;;3.22;;
20480;SDS011;10399;50.754;3.366;2023-12-14T14:16:58;12.25;;;3.35;;
20480;SDS011;10399;50.754;3.366;2023-12-14T14:19:25;8.27;;;2.60;;
20480;SDS011;10399;50.754;3.366;2023-12-14T14:21:52;10.52;;;2.75;;
20480;SDS011;10399;50.754;3.366;2023-12-14T14:24:19;7.65;;;2.75;;
20480;SDS011;10399;50.754;3.366;2023-12-14T14:26:46;9.63;;;2.78;;
20480;SDS011;10399;50.754;3.366;2023-12-14T14:29:13;13.18;;;3.00;;
20480;SDS011;10399;50.754;3.366;2023-12-14T14:31:40;8.63;;;2.58;;
20480;SDS011;10399;50.754;3.366;2023-12-14T14:34:07;14.55;;;3.38;;
20480;SDS011;10399;50.754;3.366;2023-12-14T14:36:34;8.65;;;3.42;;
20480;SDS011;10399;50.754;3.366;2023-12-14T14:39:02;14.05;;;3.30;;
20480;SDS011;10399;50.754;3.366;2023-12-14T14:41:31;18.05;;;3.47;;
20480;SDS011;10399;50.754;3.366;2023-12-14T14:43:59;16.55;;;4.40;;